sensor_id;sensor_type;location;lat;lon;timestamp;P1;durP1;ratioP1;P2;durP2;ratioP2
2011;SDS011;1009;51.436;6.972;2023-04-03T00:01:59;9.67;;;8.77;;
2011;SDS011;1009;51.436;6.972;2023-04-03T00:04:26;8.57;;;7.70;;
2011;SDS011;1009;51.436;6.972;2023-04-03T00:06:53;8.07;;;7.00;;
2011;SDS011;1009;51.436;6.972;2023-04-03T00:09:19;10.20;;;8.57;;
2011;SDS011;1009;51.436;6.972;2023-04-03T00:11:46;9.63;;;8.20;;
2011;SDS011;1009;51.436;6.972;2023-04-03T00:14:13;8.03;;;7.23;;
2011;SDS011;1009;51.436;6.972;2023-04-03T00:16:41;9.30;;;7.97;;
2011;SDS011;1009;51.436;6.972;2023-04-03T00:19:07;9.43;;;7.87;;
2011;SDS011;1009;51.436;6.972;2023-04-03T00:21:36;8.40;;;7.50;;
2011;SDS011;1009;51.436;6.972;2023-04-03T00:24:03;8.73;;;7.93;;
2011;SDS011;1009;51.436;6.972;2023-04-03T00:26:30;8.27;;;7.47;;
2011;SDS011;1009;51.436;6.972;2023-04-03T00:28:57;8.97;;;7.77;;
2011;SDS011;1009;51.436;6.972;2023-04-03T00:31:24;8.77;;;7.87;;
2011;SDS011;1009;51.436;6.972;2023-04-03T00:33:52;8.90;;;7.73;;
2011;SDS011;1009;51.436;6.972;2023-04-03T00:36:18;9.00;;;8.10;;
2011;SDS011;1009;51.436;6.972;2023-04-03T00:38:45;10.03;;;8.63;;
2011;SDS011;1009;51.436;6.972;2023-04-03T00:41:12;10.17;;;9.03;;
2011;SDS011;1009;51.436;6.972;2023-04-03T00:43:38;9.07;;;8.20;;
2011;SDS011;1009;51.436;6.972;2023-04-03T00:46:05;10.17;;;9.07;;
2011;SDS011;1009;51.436;6.972;2023-04-03T00:48:32;9.00;;;7.90;;
2011;SDS011;1009;51.436;6.972;2023-04-03T00:51:03;10.40;;;9.40;;
2011;SDS011;1009;51.436;6.972;2023-04-03T00:53:33;10.83;;;9.30;;
2011;SDS011;1009;51.436;6.972;2023-04-03T00:56:03;9.83;;;8.93;;
2011;SDS011;1009;51.436;6.972;2023-04-03T00:58:37;9.57;;;8.57;;
2011;SDS011;1009;51.436;6.972;2023-04-03T01:01:06;11.30;;;8.53;;
2011;SDS011;1009;51.436;6.972;2023-04-03T01:03:36;9.57;;;8.60;;
2011;SDS011;1009;51.436;6.972;2023-04-03T01:06:04;9.77;;;8.80;;
2011;SDS011;1009;51.436;6.972;2023-04-03T01:08:31;9.93;;;8.50;;
2011;SDS011;1009;51.436;6.972;2023-04-03T01:10:58;10.20;;;9.20;;
2011;SDS011;1009;51.436;6.972;2023-04-03T01:13:26;10.13;;;8.73;;
2011;SDS011;1009;51.436;6.972;2023-04-03T01:15:54;9.70;;;8.50;;
2011;SDS011;1009;51.436;6.972;2023-04-03T01:18:21;9.33;;;8.50;;
2011;SDS011;1009;51.436;6.972;2023-04-03T01:23:51;11.33;;;9.97;;
2011;SDS011;1009;51.436;6.972;2023-04-03T01:26:24;10.50;;;9.50;;
2011;SDS011;1009;51.436;6.972;2023-04-03T01:28:53;11.67;;;10.27;;
2011;SDS011;1009;51.436;6.972;2023-04-03T01:31:22;11.60;;;10.40;;
2011;SDS011;1009;51.436;6.972;2023-04-03T01:33:54;10.70;;;9.70;;
2011;SDS011;1009;51.436;6.972;2023-04-03T01:36:22;10.67;;;9.57;;
2011;SDS011;1009;51.436;6.972;2023-04-03T01:38:50;11.13;;;9.87;;
2011;SDS011;1009;51.436;6.972;2023-04-03T01:41:17;14.33;;;8.53;;
2011;SDS011;1009;51.436;6.972;2023-04-03T01:43:44;9.40;;;8.40;;
2011;SDS011;1009;51.436;6.972;2023-04-03T01:46:10;10.90;;;8.40;;
2011;SDS011;1009;51.436;6.972;2023-04-03T01:48:37;9.37;;;8.37;;
2011;SDS011;1009;51.436;6.972;2023-04-03T01:51:05;10.30;;;8.27;;
2011;SDS011;1009;51.436;6.972;2023-04-03T01:53:32;11.40;;;7.50;;
2011;SDS011;1009;51.436;6.972;2023-04-03T01:55:59;10.70;;;7.47;;
2011;SDS011;1009;51.436;6.972;2023-04-03T01:58:26;9.37;;;7.63;;
2011;SDS011;1009;51.436;6.972;2023-04-03T02:00:52;9.33;;;7.37;;
2011;SDS011;1009;51.436;6.972;2023-04-03T02:03:19;7.80;;;6.73;;
2011;SDS011;1009;51.436;6.972;2023-04-03T02:05:46;10.20;;;7.30;;
2011;SDS011;1009;51.436;6.972;2023-04-03T02:08:14;8.20;;;7.00;;
2011;SDS011;1009;51.436;6.972;2023-04-03T02:10:42;9.60;;;6.97;;
2011;SDS011;1009;51.436;6.972;2023-04-03T02:13:09;10.00;;;7.23;;
2011;SDS011;1009;51.436;6.972;2023-04-03T02:15:37;12.43;;;7.27;;
2011;SDS011;1009;51.436;6.972;2023-04-03T02:18:04;8.27;;;6.00;;
2011;SDS011;1009;51.436;6.972;2023-04-03T02:20:31;8.43;;;6.47;;
2011;SDS011;1009;51.436;6.972;2023-04-03T02:22:58;6.80;;;6.10;;
2011;SDS011;1009;51.436;6.972;2023-04-03T02:25:26;9.97;;;5.97;;
2011;SDS011;1009;51.436;6.972;2023-04-03T02:27:53;9.97;;;5.70;;
2011;SDS011;1009;51.436;6.972;2023-04-03T02:30:20;8.37;;;5.57;;
2011;SDS011;1009;51.436;6.972;2023-04-03T02:32:46;8.30;;;5.23;;
2011;SDS011;1009;51.436;6.972;2023-04-03T02:35:13;8.03;;;5.23;;
2011;SDS011;1009;51.436;6.972;2023-04-03T02:37:40;7.00;;;5.20;;
2011;SDS011;1009;51.436;6.972;2023-04-03T02:40:08;9.17;;;5.20;;
2011;SDS011;1009;51.436;6.972;2023-04-03T02:42:37;8.00;;;4.90;;
2011;SDS011;1009;51.436;6.972;2023-04-03T02:45:05;5.47;;;4.90;;
2011;SDS011;1009;51.436;6.972;2023-04-03T02:47:32;9.23;;;4.40;;
2011;SDS011;1009;51.436;6.972;2023-04-03T02:49:59;7.43;;;5.23;;
2011;SDS011;1009;51.436;6.972;2023-04-03T02:52:25;6.10;;;4.60;;
2011;SDS011;1009;51.436;6.972;2023-04-03T02:54:52;7.83;;;4.97;;
2011;SDS011;1009;51.436;6.972;2023-04-03T02:57:19;5.93;;;4.50;;
2011;SDS011;1009;51.436;6.972;2023-04-03T02:59:47;5.93;;;4.20;;
2011;SDS011;1009;51.436;6.972;2023-04-03T03:02:14;7.70;;;4.87;;
2011;SDS011;1009;51.436;6.972;2023-04-03T03:04:40;5.83;;;4.40;;
2011;SDS011;1009;51.436;6.972;2023-04-03T03:07:07;6.63;;;4.30;;
2011;SDS011;1009;51.436;6.972;2023-04-03T03:09:34;7.27;;;4.60;;
2011;SDS011;1009;51.436;6.972;2023-04-03T03:12:01;4.80;;;4.30;;
2011;SDS011;1009;51.436;6.972;2023-04-03T03:14:27;6.37;;;4.47;;
2011;SDS011;1009;51.436;6.972;2023-04-03T03:16:55;4.80;;;4.13;;
2011;SDS011;1009;51.436;6.972;2023-04-03T03:19:22;6.87;;;3.90;;
2011;SDS011;1009;51.436;6.972;2023-04-03T03:21:49;7.73;;;3.80;;
2011;SDS011;1009;51.436;6.972;2023-04-03T03:24:16;9.03;;;3.67;;
2011;SDS011;1009;51.436;6.972;2023-04-03T03:26:42;5.17;;;3.70;;
2011;SDS011;1009;51.436;6.972;2023-04-03T03:29:09;9.23;;;4.03;;
2011;SDS011;1009;51.436;6.972;2023-04-03T03:31:36;7.30;;;3.80;;
2011;SDS011;1009;51.436;6.972;2023-04-03T03:34:04;6.10;;;3.20;;
2011;SDS011;1009;51.436;6.972;2023-04-03T03:36:31;5.90;;;3.03;;
2011;SDS011;1009;51.436;6.972;2023-04-03T03:38:57;7.77;;;4.20;;
2011;SDS011;1009;51.436;6.972;2023-04-03T03:41:24;7.53;;;3.63;;
2011;SDS011;1009;51.436;6.972;2023-04-03T03:43:51;6.93;;;2.97;;
2011;SDS011;1009;51.436;6.972;2023-04-03T03:46:17;5.87;;;3.27;;
2011;SDS011;1009;51.436;6.972;2023-04-03T03:48:44;8.97;;;3.13;;
2011;SDS011;1009;51.436;6.972;2023-04-03T03:51:12;6.27;;;3.30;;
2011;SDS011;1009;51.436;6.972;2023-04-03T03:53:39;7.80;;;3.10;;
2011;SDS011;1009;51.436;6.972;2023-04-03T03:56:06;9.03;;;4.50;;
2011;SDS011;1009;51.436;6.972;2023-04-03T03:58:32;6.30;;;2.80;;
2011;SDS011;1009;51.436;6.972;2023-04-03T04:01:00;5.13;;;2.77;;
2011;SDS011;1009;51.436;6.972;2023-04-03T04:03:27;7.60;;;3.77;;
2011;SDS011;1009;51.436;6.972;2023-04-03T04:05:54;8.50;;;3.70;;
2011;SDS011;1009;51.436;6.972;2023-04-03T04:08:22;7.80;;;3.67;;
2011;SDS011;1009;51.436;6.972;2023-04-03T04:10:49;5.03;;;3.50;;
2011;SDS011;1009;51.436;6.972;2023-04-03T04:13:16;7.43;;;3.40;;
2011;SDS011;1009;51.436;6.972;2023-04-03T04:15:43;8.40;;;3.40;;
2011;SDS011;1009;51.436;6.972;2023-04-03T04:18:10;4.10;;;3.20;;
2011;SDS011;1009;51.436;6.972;2023-04-03T04:20:36;4.40;;;3.10;;
2011;SDS011;1009;51.436;6.972;2023-04-03T04:23:03;6.83;;;3.50;;
2011;SDS011;1009;51.436;6.972;2023-04-03T04:25:31;4.50;;;2.87;;
2011;SDS011;1009;51.436;6.972;2023-04-03T04:27:58;5.20;;;2.67;;
2011;SDS011;1009;51.436;6.972;2023-04-03T04:30:25;7.73;;;3.53;;
2011;SDS011;1009;51.436;6.972;2023-04-03T04:32:52;5.53;;;3.60;;
2011;SDS011;1009;51.436;6.972;2023-04-03T04:35:19;7.57;;;3.50;;
2011;SDS011;1009;51.436;6.972;2023-04-03T04:37:46;7.67;;;3.37;;
2011;SDS011;1009;51.436;6.972;2023-04-03T04:40:12;6.17;;;3.13;;
2011;SDS011;1009;51.436;6.972;2023-04-03T04:42:41;6.13;;;3.20;;
2011;SDS011;1009;51.436;6.972;2023-04-03T04:45:08;5.53;;;2.90;;
2011;SDS011;1009;51.436;6.972;2023-04-03T04:47:35;6.17;;;3.20;;
2011;SDS011;1009;51.436;6.972;2023-04-03T04:50:02;7.53;;;3.30;;
2011;SDS011;1009;51.436;6.972;2023-04-03T04:52:29;9.10;;;3.60;;
2011;SDS011;1009;51.436;6.972;2023-04-03T04:54:56;6.23;;;3.30;;
2011;SDS011;1009;51.436;6.972;2023-04-03T04:57:22;4.43;;;3.37;;
2011;SDS011;1009;51.436;6.972;2023-04-03T04:59:51;9.63;;;3.67;;
2011;SDS011;1009;51.436;6.972;2023-04-03T05:02:17;4.83;;;3.20;;
2011;SDS011;1009;51.436;6.972;2023-04-03T05:04:44;7.77;;;3.20;;
2011;SDS011;1009;51.436;6.972;2023-04-03T05:07:11;7.97;;;3.70;;
2011;SDS011;1009;51.436;6.972;2023-04-03T05:09:38;6.33;;;3.50;;
2011;SDS011;1009;51.436;6.972;2023-04-03T05:12:07;6.13;;;3.60;;
2011;SDS011;1009;51.436;6.972;2023-04-03T05:14:33;6.23;;;3.30;;
2011;SDS011;1009;51.436;6.972;2023-04-03T05:17:02;6.00;;;3.57;;
2011;SDS011;1009;51.436;6.972;2023-04-03T05:19:28;6.43;;;3.77;;
2011;SDS011;1009;51.436;6.972;2023-04-03T05:21:55;6.37;;;3.80;;
2011;SDS011;1009;51.436;6.972;2023-04-03T05:24:22;8.20;;;3.53;;
2011;SDS011;1009;51.436;6.972;2023-04-03T05:26:48;6.07;;;3.47;;
2011;SDS011;1009;51.436;6.972;2023-04-03T05:29:15;5.43;;;3.03;;
2011;SDS011;1009;51.436;6.972;2023-04-03T05:31:42;8.77;;;3.87;;
2011;SDS011;1009;51.436;6.972;2023-04-03T05:34:11;6.03;;;3.57;;
2011;SDS011;1009;51.436;6.972;2023-04-03T05:36:37;7.90;;;3.97;;
2011;SDS011;1009;51.436;6.972;2023-04-03T05:39:04;6.23;;;3.07;;
2011;SDS011;1009;51.436;6.972;2023-04-03T05:41:31;8.47;;;4.03;;
2011;SDS011;1009;51.436;6.972;2023-04-03T05:43:57;7.57;;;4.03;;
2011;SDS011;1009;51.436;6.972;2023-04-03T05:46:24;9.30;;;3.80;;
2011;SDS011;1009;51.436;6.972;2023-04-03T05:48:51;4.83;;;3.50;;
2011;SDS011;1009;51.436;6.972;2023-04-03T05:51:22;9.77;;;4.10;;
2011;SDS011;1009;51.436;6.972;2023-04-03T05:53:51;9.93;;;3.90;;
2011;SDS011;1009;51.436;6.972;2023-04-03T05:56:25;7.07;;;3.80;;
2011;SDS011;1009;51.436;6.972;2023-04-03T05:58:52;9.43;;;4.03;;
2011;SDS011;1009;51.436;6.972;2023-04-03T06:01:20;7.97;;;4.73;;
2011;SDS011;1009;51.436;6.972;2023-04-03T06:03:46;6.80;;;3.60;;
2011;SDS011;1009;51.436;6.972;2023-04-03T06:06:13;8.90;;;3.50;;
2011;SDS011;1009;51.436;6.972;2023-04-03T06:08:41;9.87;;;4.77;;
2011;SDS011;1009;51.436;6.972;2023-04-03T06:11:08;7.30;;;4.23;;
2011;SDS011;1009;51.436;6.972;2023-04-03T06:13:35;8.30;;;4.20;;
2011;SDS011;1009;51.436;6.972;2023-04-03T06:16:02;7.20;;;4.30;;
2011;SDS011;1009;51.436;6.972;2023-04-03T06:18:29;8.60;;;4.23;;
2011;SDS011;1009;51.436;6.972;2023-04-03T06:20:56;6.23;;;4.00;;
2011;SDS011;1009;51.436;6.972;2023-04-03T06:23:23;6.33;;;3.70;;
2011;SDS011;1009;51.436;6.972;2023-04-03T06:25:51;10.83;;;4.03;;
2011;SDS011;1009;51.436;6.972;2023-04-03T06:28:18;8.30;;;4.03;;
2011;SDS011;1009;51.436;6.972;2023-04-03T06:30:45;5.83;;;3.60;;
2011;SDS011;1009;51.436;6.972;2023-04-03T06:33:12;4.70;;;3.37;;
2011;SDS011;1009;51.436;6.972;2023-04-03T06:35:38;9.00;;;3.87;;
2011;SDS011;1009;51.436;6.972;2023-04-03T06:38:05;12.97;;;3.97;;
2011;SDS011;1009;51.436;6.972;2023-04-03T06:40:34;7.50;;;4.70;;
2011;SDS011;1009;51.436;6.972;2023-04-03T06:43:02;7.87;;;4.13;;
2011;SDS011;1009;51.436;6.972;2023-04-03T06:45:30;6.63;;;4.50;;
2011;SDS011;1009;51.436;6.972;2023-04-03T06:47:56;6.37;;;3.47;;
2011;SDS011;1009;51.436;6.972;2023-04-03T06:50:23;8.33;;;4.37;;
2011;SDS011;1009;51.436;6.972;2023-04-03T06:52:51;8.27;;;4.10;;
2011;SDS011;1009;51.436;6.972;2023-04-03T06:55:17;7.83;;;3.70;;
2011;SDS011;1009;51.436;6.972;2023-04-03T06:57:44;6.90;;;3.40;;
2011;SDS011;1009;51.436;6.972;2023-04-03T07:00:13;9.50;;;3.90;;
2011;SDS011;1009;51.436;6.972;2023-04-03T07:02:44;7.60;;;4.00;;
2011;SDS011;1009;51.436;6.972;2023-04-03T07:05:11;7.03;;;3.07;;
2011;SDS011;1009;51.436;6.972;2023-04-03T07:07:38;6.87;;;3.30;;
2011;SDS011;1009;51.436;6.972;2023-04-03T07:10:06;5.17;;;3.63;;
2011;SDS011;1009;51.436;6.972;2023-04-03T07:12:33;8.00;;;3.20;;
2011;SDS011;1009;51.436;6.972;2023-04-03T07:15:00;9.03;;;3.40;;
2011;SDS011;1009;51.436;6.972;2023-04-03T07:17:29;8.20;;;3.30;;
2011;SDS011;1009;51.436;6.972;2023-04-03T07:19:56;13.13;;;3.80;;
2011;SDS011;1009;51.436;6.972;2023-04-03T07:22:22;5.40;;;3.07;;
2011;SDS011;1009;51.436;6.972;2023-04-03T07:24:49;5.00;;;3.00;;
2011;SDS011;1009;51.436;6.972;2023-04-03T07:27:16;6.40;;;3.20;;
2011;SDS011;1009;51.436;6.972;2023-04-03T07:29:43;8.33;;;3.70;;
2011;SDS011;1009;51.436;6.972;2023-04-03T07:32:10;5.20;;;3.20;;
2011;SDS011;1009;51.436;6.972;2023-04-03T07:34:38;4.83;;;2.90;;
2011;SDS011;1009;51.436;6.972;2023-04-03T07:37:05;5.60;;;2.37;;
2011;SDS011;1009;51.436;6.972;2023-04-03T07:39:32;4.90;;;2.90;;
2011;SDS011;1009;51.436;6.972;2023-04-03T07:41:58;7.50;;;3.17;;
2011;SDS011;1009;51.436;6.972;2023-04-03T07:44:25;8.30;;;3.30;;
2011;SDS011;1009;51.436;6.972;2023-04-03T07:46:52;5.77;;;3.20;;
2011;SDS011;1009;51.436;6.972;2023-04-03T07:49:20;3.23;;;2.67;;
2011;SDS011;1009;51.436;6.972;2023-04-03T07:51:49;8.50;;;3.50;;
2011;SDS011;1009;51.436;6.972;2023-04-03T07:54:16;6.70;;;3.30;;
2011;SDS011;1009;51.436;6.972;2023-04-03T07:56:43;8.00;;;3.50;;
2011;SDS011;1009;51.436;6.972;2023-04-03T07:59:10;10.43;;;3.57;;
2011;SDS011;1009;51.436;6.972;2023-04-03T08:01:37;4.77;;;2.60;;
2011;SDS011;1009;51.436;6.972;2023-04-03T08:04:04;10.00;;;3.50;;
2011;SDS011;1009;51.436;6.972;2023-04-03T08:06:31;5.90;;;2.50;;
2011;SDS011;1009;51.436;6.972;2023-04-03T08:09:02;9.27;;;4.10;;
2011;SDS011;1009;51.436;6.972;2023-04-03T08:11:29;7.33;;;3.80;;
2011;SDS011;1009;51.436;6.972;2023-04-03T08:13:56;6.40;;;2.77;;
2011;SDS011;1009;51.436;6.972;2023-04-03T08:16:23;4.67;;;3.03;;
2011;SDS011;1009;51.436;6.972;2023-04-03T08:18:51;4.40;;;2.40;;
2011;SDS011;1009;51.436;6.972;2023-04-03T08:21:19;5.57;;;2.90;;
2011;SDS011;1009;51.436;6.972;2023-04-03T08:23:47;4.87;;;2.60;;
2011;SDS011;1009;51.436;6.972;2023-04-03T08:26:23;5.00;;;2.63;;
2011;SDS011;1009;51.436;6.972;2023-04-03T08:28:51;6.03;;;2.43;;
2011;SDS011;1009;51.436;6.972;2023-04-03T08:31:18;6.00;;;2.33;;
2011;SDS011;1009;51.436;6.972;2023-04-03T08:33:45;4.70;;;2.80;;
2011;SDS011;1009;51.436;6.972;2023-04-03T08:36:16;9.10;;;2.60;;
2011;SDS011;1009;51.436;6.972;2023-04-03T08:38:45;6.27;;;2.50;;
2011;SDS011;1009;51.436;6.972;2023-04-03T08:41:14;6.77;;;2.30;;
2011;SDS011;1009;51.436;6.972;2023-04-03T08:43:52;3.90;;;2.90;;
2011;SDS011;1009;51.436;6.972;2023-04-03T08:46:31;5.47;;;1.97;;
2011;SDS011;1009;51.436;6.972;2023-04-03T08:49:04;3.60;;;2.40;;
2011;SDS011;1009;51.436;6.972;2023-04-03T08:51:41;5.00;;;1.90;;
2011;SDS011;1009;51.436;6.972;2023-04-03T08:54:17;4.80;;;2.93;;
2011;SDS011;1009;51.436;6.972;2023-04-03T08:56:50;6.50;;;2.63;;
2011;SDS011;1009;51.436;6.972;2023-04-03T08:59:19;3.80;;;1.97;;
2011;SDS011;1009;51.436;6.972;2023-04-03T09:01:53;3.37;;;2.20;;
2011;SDS011;1009;51.436;6.972;2023-04-03T09:04:21;4.40;;;2.10;;
2011;SDS011;1009;51.436;6.972;2023-04-03T09:06:49;3.07;;;2.30;;
2011;SDS011;1009;51.436;6.972;2023-04-03T09:09:24;5.40;;;2.03;;
2011;SDS011;1009;51.436;6.972;2023-04-03T09:11:59;6.23;;;2.03;;
2011;SDS011;1009;51.436;6.972;2023-04-03T09:14:39;4.17;;;1.70;;
2011;SDS011;1009;51.436;6.972;2023-04-03T09:17:13;3.00;;;1.50;;
2011;SDS011;1009;51.436;6.972;2023-04-03T09:19:46;3.50;;;1.63;;
2011;SDS011;1009;51.436;6.972;2023-04-03T09:22:21;6.67;;;1.80;;
2011;SDS011;1009;51.436;6.972;2023-04-03T09:24:52;2.20;;;1.47;;
2011;SDS011;1009;51.436;6.972;2023-04-03T09:27:24;4.10;;;1.33;;
2011;SDS011;1009;51.436;6.972;2023-04-03T09:29:53;5.27;;;1.70;;
2011;SDS011;1009;51.436;6.972;2023-04-03T09:32:25;3.03;;;1.50;;
2011;SDS011;1009;51.436;6.972;2023-04-03T09:34:55;2.70;;;1.20;;
2011;SDS011;1009;51.436;6.972;2023-04-03T09:37:35;2.90;;;1.40;;
2011;SDS011;1009;51.436;6.972;2023-04-03T09:40:05;7.43;;;1.87;;
2011;SDS011;1009;51.436;6.972;2023-04-03T09:42:54;3.97;;;1.50;;
2011;SDS011;1009;51.436;6.972;2023-04-03T09:45:24;4.43;;;1.47;;
2011;SDS011;1009;51.436;6.972;2023-04-03T09:48:03;4.30;;;1.57;;
2011;SDS011;1009;51.436;6.972;2023-04-03T09:50:32;6.90;;;1.30;;
2011;SDS011;1009;51.436;6.972;2023-04-03T09:53:02;3.10;;;1.47;;
2011;SDS011;1009;51.436;6.972;2023-04-03T09:55:32;2.60;;;1.43;;
2011;SDS011;1009;51.436;6.972;2023-04-03T09:57:59;2.53;;;1.40;;
2011;SDS011;1009;51.436;6.972;2023-04-03T10:00:30;2.30;;;1.20;;
2011;SDS011;1009;51.436;6.972;2023-04-03T10:03:00;3.43;;;1.40;;
2011;SDS011;1009;51.436;6.972;2023-04-03T10:05:28;2.43;;;1.00;;
2011;SDS011;1009;51.436;6.972;2023-04-03T10:08:10;3.07;;;1.20;;
2011;SDS011;1009;51.436;6.972;2023-04-03T10:10:46;4.20;;;1.50;;
2011;SDS011;1009;51.436;6.972;2023-04-03T10:13:14;2.10;;;1.57;;
2011;SDS011;1009;51.436;6.972;2023-04-03T10:15:46;1.50;;;1.00;;
2011;SDS011;1009;51.436;6.972;2023-04-03T10:18:22;2.70;;;1.43;;
2011;SDS011;1009;51.436;6.972;2023-04-03T10:20:56;5.30;;;1.20;;
2011;SDS011;1009;51.436;6.972;2023-04-03T10:23:26;3.33;;;1.20;;
2011;SDS011;1009;51.436;6.972;2023-04-03T10:26:00;3.97;;;1.10;;
2011;SDS011;1009;51.436;6.972;2023-04-03T10:28:37;1.87;;;1.37;;
2011;SDS011;1009;51.436;6.972;2023-04-03T10:31:14;3.00;;;1.20;;
2011;SDS011;1009;51.436;6.972;2023-04-03T10:33:53;3.23;;;1.53;;
2011;SDS011;1009;51.436;6.972;2023-04-03T10:36:33;2.67;;;1.67;;
2011;SDS011;1009;51.436;6.972;2023-04-03T10:39:11;2.40;;;1.70;;
2011;SDS011;1009;51.436;6.972;2023-04-03T10:41:47;6.13;;;1.37;;
2011;SDS011;1009;51.436;6.972;2023-04-03T10:44:26;5.23;;;1.87;;
2011;SDS011;1009;51.436;6.972;2023-04-03T10:47:05;3.07;;;1.30;;
2011;SDS011;1009;51.436;6.972;2023-04-03T10:49:40;2.80;;;1.20;;
2011;SDS011;1009;51.436;6.972;2023-04-03T10:52:17;2.20;;;1.37;;
2011;SDS011;1009;51.436;6.972;2023-04-03T10:54:49;2.63;;;1.47;;
2011;SDS011;1009;51.436;6.972;2023-04-03T10:57:26;3.90;;;1.43;;
2011;SDS011;1009;51.436;6.972;2023-04-03T10:59:56;2.93;;;1.57;;
2011;SDS011;1009;51.436;6.972;2023-04-03T11:02:29;2.03;;;1.03;;
2011;SDS011;1009;51.436;6.972;2023-04-03T11:04:59;2.37;;;1.43;;
2011;SDS011;1009;51.436;6.972;2023-04-03T11:07:32;5.27;;;1.87;;
2011;SDS011;1009;51.436;6.972;2023-04-03T11:10:05;5.13;;;1.40;;
2011;SDS011;1009;51.436;6.972;2023-04-03T11:12:41;2.00;;;1.30;;
2011;SDS011;1009;51.436;6.972;2023-04-03T11:15:11;2.50;;;1.40;;
2011;SDS011;1009;51.436;6.972;2023-04-03T11:17:41;5.37;;;1.50;;
2011;SDS011;1009;51.436;6.972;2023-04-03T11:20:16;2.70;;;1.70;;
2011;SDS011;1009;51.436;6.972;2023-04-03T11:22:47;2.40;;;1.50;;
2011;SDS011;1009;51.436;6.972;2023-04-03T11:25:18;3.10;;;1.33;;
2011;SDS011;1009;51.436;6.972;2023-04-03T11:27:49;3.07;;;1.50;;
2011;SDS011;1009;51.436;6.972;2023-04-03T11:30:20;6.83;;;1.70;;
2011;SDS011;1009;51.436;6.972;2023-04-03T11:35:43;4.27;;;1.50;;
2011;SDS011;1009;51.436;6.972;2023-04-03T11:38:13;2.50;;;1.37;;
2011;SDS011;1009;51.436;6.972;2023-04-03T11:40:47;2.17;;;1.30;;
2011;SDS011;1009;51.436;6.972;2023-04-03T11:43:21;4.63;;;1.73;;
2011;SDS011;1009;51.436;6.972;2023-04-03T11:45:55;3.00;;;1.67;;
2011;SDS011;1009;51.436;6.972;2023-04-03T11:48:48;4.13;;;1.23;;
2011;SDS011;1009;51.436;6.972;2023-04-03T11:51:38;4.20;;;1.60;;
2011;SDS011;1009;51.436;6.972;2023-04-03T11:57:13;4.50;;;1.63;;
2011;SDS011;1009;51.436;6.972;2023-04-03T12:03:31;2.37;;;1.70;;
2011;SDS011;1009;51.436;6.972;2023-04-03T12:09:02;2.43;;;1.77;;
2011;SDS011;1009;51.436;6.972;2023-04-03T12:11:48;2.90;;;1.50;;
2011;SDS011;1009;51.436;6.972;2023-04-03T12:14:15;2.13;;;1.53;;
2011;SDS011;1009;51.436;6.972;2023-04-03T12:16:43;2.20;;;1.33;;
2011;SDS011;1009;51.436;6.972;2023-04-03T12:19:27;2.13;;;1.10;;
2011;SDS011;1009;51.436;6.972;2023-04-03T12:22:08;3.60;;;1.57;;
2011;SDS011;1009;51.436;6.972;2023-04-03T12:24:42;1.90;;;1.13;;
2011;SDS011;1009;51.436;6.972;2023-04-03T12:30:07;2.30;;;1.40;;
2011;SDS011;1009;51.436;6.972;2023-04-03T12:32:46;6.03;;;1.30;;
2011;SDS011;1009;51.436;6.972;2023-04-03T12:35:24;2.70;;;1.30;;
2011;SDS011;1009;51.436;6.972;2023-04-03T12:38:16;2.00;;;1.27;;
2011;SDS011;1009;51.436;6.972;2023-04-03T12:41:01;2.77;;;1.30;;
2011;SDS011;1009;51.436;6.972;2023-04-03T12:43:42;2.17;;;1.27;;
2011;SDS011;1009;51.436;6.972;2023-04-03T12:46:17;3.10;;;1.30;;
2011;SDS011;1009;51.436;6.972;2023-04-03T12:48:48;1.90;;;1.30;;
2011;SDS011;1009;51.436;6.972;2023-04-03T12:51:17;3.13;;;1.10;;
2011;SDS011;1009;51.436;6.972;2023-04-03T12:53:46;2.67;;;1.50;;
2011;SDS011;1009;51.436;6.972;2023-04-03T12:56:19;3.83;;;1.53;;
2011;SDS011;1009;51.436;6.972;2023-04-03T12:58:48;3.90;;;1.37;;
2011;SDS011;1009;51.436;6.972;2023-04-03T13:01:16;2.90;;;1.20;;
2011;SDS011;1009;51.436;6.972;2023-04-03T13:03:47;3.53;;;1.57;;
2011;SDS011;1009;51.436;6.972;2023-04-03T13:06:18;3.43;;;1.30;;
2011;SDS011;1009;51.436;6.972;2023-04-03T13:08:48;2.37;;;1.27;;
2011;SDS011;1009;51.436;6.972;2023-04-03T13:11:16;2.47;;;1.73;;
2011;SDS011;1009;51.436;6.972;2023-04-03T13:13:56;6.03;;;1.43;;
2011;SDS011;1009;51.436;6.972;2023-04-03T13:16:24;3.90;;;2.00;;
2011;SDS011;1009;51.436;6.972;2023-04-03T13:18:51;1.70;;;1.13;;
2011;SDS011;1009;51.436;6.972;2023-04-03T13:21:20;2.27;;;1.17;;
2011;SDS011;1009;51.436;6.972;2023-04-03T13:23:51;2.07;;;1.27;;
2011;SDS011;1009;51.436;6.972;2023-04-03T13:26:21;2.93;;;1.10;;
2011;SDS011;1009;51.436;6.972;2023-04-03T13:28:54;2.10;;;0.97;;
2011;SDS011;1009;51.436;6.972;2023-04-03T13:31:26;2.50;;;1.10;;
2011;SDS011;1009;51.436;6.972;2023-04-03T13:33:56;1.80;;;1.30;;
2011;SDS011;1009;51.436;6.972;2023-04-03T13:36:29;3.73;;;1.90;;
2011;SDS011;1009;51.436;6.972;2023-04-03T13:39:02;2.10;;;1.50;;
2011;SDS011;1009;51.436;6.972;2023-04-03T13:41:32;3.83;;;1.20;;
2011;SDS011;1009;51.436;6.972;2023-04-03T13:47:00;3.47;;;1.10;;
2011;SDS011;1009;51.436;6.972;2023-04-03T13:49:41;3.40;;;1.33;;
2011;SDS011;1009;51.436;6.972;2023-04-03T13:52:20;3.00;;;1.50;;
2011;SDS011;1009;51.436;6.972;2023-04-03T13:54:51;1.73;;;1.40;;
2011;SDS011;1009;51.436;6.972;2023-04-03T13:57:22;2.40;;;1.30;;
2011;SDS011;1009;51.436;6.972;2023-04-03T13:59:49;3.37;;;1.10;;
2011;SDS011;1009;51.436;6.972;2023-04-03T14:02:18;7.07;;;1.30;;
2011;SDS011;1009;51.436;6.972;2023-04-03T14:04:48;5.50;;;1.70;;
2011;SDS011;1009;51.436;6.972;2023-04-03T14:07:21;2.80;;;1.20;;
2011;SDS011;1009;51.436;6.972;2023-04-03T14:09:49;2.87;;;1.70;;
2011;SDS011;1009;51.436;6.972;2023-04-03T14:12:17;2.10;;;1.10;;
2011;SDS011;1009;51.436;6.972;2023-04-03T14:14:49;2.90;;;1.10;;
2011;SDS011;1009;51.436;6.972;2023-04-03T14:17:17;2.27;;;1.20;;
2011;SDS011;1009;51.436;6.972;2023-04-03T14:19:46;2.40;;;1.20;;
2011;SDS011;1009;51.436;6.972;2023-04-03T14:22:16;2.57;;;1.30;;
2011;SDS011;1009;51.436;6.972;2023-04-03T14:24:46;7.37;;;1.77;;
2011;SDS011;1009;51.436;6.972;2023-04-03T14:27:16;2.73;;;1.70;;
2011;SDS011;1009;51.436;6.972;2023-04-03T14:29:46;2.73;;;1.40;;
2011;SDS011;1009;51.436;6.972;2023-04-03T14:32:15;2.70;;;1.20;;
2011;SDS011;1009;51.436;6.972;2023-04-03T14:34:42;2.50;;;1.17;;
2011;SDS011;1009;51.436;6.972;2023-04-03T14:37:11;1.80;;;1.00;;
2011;SDS011;1009;51.436;6.972;2023-04-03T14:39:39;2.43;;;1.30;;
2011;SDS011;1009;51.436;6.972;2023-04-03T14:42:09;3.60;;;1.30;;
2011;SDS011;1009;51.436;6.972;2023-04-03T14:44:38;3.90;;;1.30;;
2011;SDS011;1009;51.436;6.972;2023-04-03T14:47:08;4.93;;;1.20;;
2011;SDS011;1009;51.436;6.972;2023-04-03T14:49:37;6.47;;;1.70;;
2011;SDS011;1009;51.436;6.972;2023-04-03T14:52:04;1.43;;;1.00;;
2011;SDS011;1009;51.436;6.972;2023-04-03T14:54:31;1.80;;;1.57;;
2011;SDS011;1009;51.436;6.972;2023-04-03T14:56:58;4.27;;;1.40;;
2011;SDS011;1009;51.436;6.972;2023-04-03T14:59:27;4.50;;;1.40;;
2011;SDS011;1009;51.436;6.972;2023-04-03T15:01:55;2.30;;;1.10;;
2011;SDS011;1009;51.436;6.972;2023-04-03T15:04:21;2.13;;;1.50;;
2011;SDS011;1009;51.436;6.972;2023-04-03T15:06:49;4.30;;;1.60;;
2011;SDS011;1009;51.436;6.972;2023-04-03T15:09:19;2.33;;;1.37;;
2011;SDS011;1009;51.436;6.972;2023-04-03T15:11:47;3.47;;;1.43;;
2011;SDS011;1009;51.436;6.972;2023-04-03T15:14:14;4.63;;;2.00;;
2011;SDS011;1009;51.436;6.972;2023-04-03T15:16:41;3.63;;;1.70;;
2011;SDS011;1009;51.436;6.972;2023-04-03T15:19:08;3.53;;;1.33;;
2011;SDS011;1009;51.436;6.972;2023-04-03T15:21:34;5.37;;;1.33;;
2011;SDS011;1009;51.436;6.972;2023-04-03T15:24:03;3.33;;;1.60;;
2011;SDS011;1009;51.436;6.972;2023-04-03T15:26:30;2.73;;;1.33;;
2011;SDS011;1009;51.436;6.972;2023-04-03T15:28:57;3.00;;;1.57;;
2011;SDS011;1009;51.436;6.972;2023-04-03T15:31:24;3.33;;;1.27;;
2011;SDS011;1009;51.436;6.972;2023-04-03T15:33:51;3.00;;;1.50;;
2011;SDS011;1009;51.436;6.972;2023-04-03T15:36:18;2.60;;;1.50;;
2011;SDS011;1009;51.436;6.972;2023-04-03T15:38:45;5.90;;;1.90;;
2011;SDS011;1009;51.436;6.972;2023-04-03T15:41:13;4.57;;;1.27;;
2011;SDS011;1009;51.436;6.972;2023-04-03T15:43:39;3.07;;;1.40;;
2011;SDS011;1009;51.436;6.972;2023-04-03T15:46:06;4.07;;;1.63;;
2011;SDS011;1009;51.436;6.972;2023-04-03T15:48:33;3.80;;;1.60;;
2011;SDS011;1009;51.436;6.972;2023-04-03T15:51:00;4.03;;;1.60;;